sensor_id;sensor_type;location;lat;lon;timestamp;temperature;humidity
12872;DHT22;6504;53.766;9.626;2023-04-25T00:01:49;8.80;99.90
12872;DHT22;6504;53.766;9.626;2023-04-25T00:04:18;8.80;99.90
12872;DHT22;6504;53.766;9.626;2023-04-25T00:06:46;8.80;99.90
12872;DHT22;6504;53.766;9.626;2023-04-25T00:09:14;8.80;99.90
12872;DHT22;6504;53.766;9.626;2023-04-25T00:11:42;8.80;99.90
12872;DHT22;6504;53.766;9.626;2023-04-25T00:14:10;8.70;99.90
12872;DHT22;6504;53.766;9.626;2023-04-25T00:16:40;8.70;99.90
12872;DHT22;6504;53.766;9.626;2023-04-25T00:19:10;8.70;99.90
12872;DHT22;6504;53.766;9.626;2023-04-25T00:21:40;8.60;99.90
12872;DHT22;6504;53.766;9.626;2023-04-25T00:24:08;8.60;99.90
12872;DHT22;6504;53.766;9.626;2023-04-25T00:26:36;8.60;99.90
12872;DHT22;6504;53.766;9.626;2023-04-25T00:29:04;8.50;99.90
12872;DHT22;6504;53.766;9.626;2023-04-25T00:31:32;8.50;99.90
12872;DHT22;6504;53.766;9.626;2023-04-25T00:34:01;8.50;99.90
12872;DHT22;6504;53.766;9.626;2023-04-25T00:36:30;8.50;99.90
12872;DHT22;6504;53.766;9.626;2023-04-25T00:38:58;8.40;99.90
12872;DHT22;6504;53.766;9.626;2023-04-25T00:41:26;8.40;99.90
12872;DHT22;6504;53.766;9.626;2023-04-25T00:43:56;8.40;99.90
12872;DHT22;6504;53.766;9.626;2023-04-25T00:46:25;8.40;99.90
12872;DHT22;6504;53.766;9.626;2023-04-25T00:48:53;8.30;99.90
12872;DHT22;6504;53.766;9.626;2023-04-25T00:51:22;8.40;99.90
12872;DHT22;6504;53.766;9.626;2023-04-25T00:53:52;8.40;99.90
12872;DHT22;6504;53.766;9.626;2023-04-25T00:56:21;8.40;99.90
12872;DHT22;6504;53.766;9.626;2023-04-25T00:58:49;8.30;99.90
12872;DHT22;6504;53.766;9.626;2023-04-25T01:01:18;8.30;99.90
12872;DHT22;6504;53.766;9.626;2023-04-25T01:03:46;8.30;99.90
12872;DHT22;6504;53.766;9.626;2023-04-25T01:06:17;8.30;99.90
12872;DHT22;6504;53.766;9.626;2023-04-25T01:08:47;8.30;99.90
12872;DHT22;6504;53.766;9.626;2023-04-25T01:11:15;8.20;99.90
12872;DHT22;6504;53.766;9.626;2023-04-25T01:13:43;8.20;99.90
12872;DHT22;6504;53.766;9.626;2023-04-25T01:16:11;8.20;99.90
12872;DHT22;6504;53.766;9.626;2023-04-25T01:18:40;8.20;99.90
12872;DHT22;6504;53.766;9.626;2023-04-25T01:21:11;8.20;99.90
12872;DHT22;6504;53.766;9.626;2023-04-25T01:23:40;8.20;99.90
12872;DHT22;6504;53.766;9.626;2023-04-25T01:26:10;8.10;99.90
12872;DHT22;6504;53.766;9.626;2023-04-25T01:28:39;8.10;99.90
12872;DHT22;6504;53.766;9.626;2023-04-25T01:31:08;8.10;99.90
12872;DHT22;6504;53.766;9.626;2023-04-25T01:33:37;8.00;99.90
12872;DHT22;6504;53.766;9.626;2023-04-25T01:36:06;8.00;99.90
12872;DHT22;6504;53.766;9.626;2023-04-25T01:38:35;8.00;99.90
12872;DHT22;6504;53.766;9.626;2023-04-25T01:41:04;7.90;99.90
12872;DHT22;6504;53.766;9.626;2023-04-25T01:43:32;7.90;99.90
12872;DHT22;6504;53.766;9.626;2023-04-25T01:46:00;7.90;99.90
12872;DHT22;6504;53.766;9.626;2023-04-25T01:48:29;7.90;99.90
12872;DHT22;6504;53.766;9.626;2023-04-25T01:50:57;7.90;99.90
12872;DHT22;6504;53.766;9.626;2023-04-25T01:53:25;7.90;99.90
12872;DHT22;6504;53.766;9.626;2023-04-25T01:55:55;7.90;99.90
12872;DHT22;6504;53.766;9.626;2023-04-25T01:58:23;7.90;99.90
12872;DHT22;6504;53.766;9.626;2023-04-25T02:00:51;7.80;99.90
12872;DHT22;6504;53.766;9.626;2023-04-25T02:03:19;7.80;99.90
12872;DHT22;6504;53.766;9.626;2023-04-25T02:05:47;7.80;99.90
12872;DHT22;6504;53.766;9.626;2023-04-25T02:08:16;7.80;99.90
12872;DHT22;6504;53.766;9.626;2023-04-25T02:10:44;7.80;99.90
12872;DHT22;6504;53.766;9.626;2023-04-25T02:13:14;7.80;99.90
12872;DHT22;6504;53.766;9.626;2023-04-25T02:15:42;7.80;99.90
12872;DHT22;6504;53.766;9.626;2023-04-25T02:18:10;7.70;99.90
12872;DHT22;6504;53.766;9.626;2023-04-25T02:20:38;7.70;99.90
12872;DHT22;6504;53.766;9.626;2023-04-25T02:23:06;7.70;99.90
12872;DHT22;6504;53.766;9.626;2023-04-25T02:25:34;7.60;99.90
12872;DHT22;6504;53.766;9.626;2023-04-25T02:28:02;7.60;99.90
12872;DHT22;6504;53.766;9.626;2023-04-25T02:30:32;7.60;99.90
12872;DHT22;6504;53.766;9.626;2023-04-25T02:33:00;7.50;99.90
12872;DHT22;6504;53.766;9.626;2023-04-25T02:35:28;7.50;99.90
12872;DHT22;6504;53.766;9.626;2023-04-25T02:37:56;7.50;99.90
12872;DHT22;6504;53.766;9.626;2023-04-25T02:40:24;7.50;99.90
12872;DHT22;6504;53.766;9.626;2023-04-25T02:42:52;7.50;99.90
12872;DHT22;6504;53.766;9.626;2023-04-25T02:45:21;7.50;99.90
12872;DHT22;6504;53.766;9.626;2023-04-25T02:47:50;7.50;99.90
12872;DHT22;6504;53.766;9.626;2023-04-25T02:50:18;7.40;99.90
12872;DHT22;6504;53.766;9.626;2023-04-25T02:52:46;7.40;99.90
12872;DHT22;6504;53.766;9.626;2023-04-25T02:55:14;7.40;99.90
12872;DHT22;6504;53.766;9.626;2023-04-25T02:57:42;7.40;99.90
12872;DHT22;6504;53.766;9.626;2023-04-25T03:00:12;7.40;99.90
12872;DHT22;6504;53.766;9.626;2023-04-25T03:02:41;7.30;99.90
12872;DHT22;6504;53.766;9.626;2023-04-25T03:05:12;7.30;99.90
12872;DHT22;6504;53.766;9.626;2023-04-25T03:07:41;7.30;99.90
12872;DHT22;6504;53.766;9.626;2023-04-25T03:10:11;7.30;99.90
12872;DHT22;6504;53.766;9.626;2023-04-25T03:12:39;7.30;99.90
12872;DHT22;6504;53.766;9.626;2023-04-25T03:15:07;7.30;99.90
12872;DHT22;6504;53.766;9.626;2023-04-25T03:17:35;7.30;99.90
12872;DHT22;6504;53.766;9.626;2023-04-25T03:20:05;7.30;99.90
12872;DHT22;6504;53.766;9.626;2023-04-25T03:22:36;7.30;99.90
12872;DHT22;6504;53.766;9.626;2023-04-25T03:25:05;7.30;99.90
12872;DHT22;6504;53.766;9.626;2023-04-25T03:27:33;7.20;99.90
12872;DHT22;6504;53.766;9.626;2023-04-25T03:30:01;7.20;99.90
12872;DHT22;6504;53.766;9.626;2023-04-25T03:32:30;7.10;99.90
12872;DHT22;6504;53.766;9.626;2023-04-25T03:34:58;7.10;99.90
12872;DHT22;6504;53.766;9.626;2023-04-25T03:37:26;7.10;99.90
12872;DHT22;6504;53.766;9.626;2023-04-25T03:39:56;7.00;99.90
12872;DHT22;6504;53.766;9.626;2023-04-25T03:42:24;7.00;99.90
12872;DHT22;6504;53.766;9.626;2023-04-25T03:44:52;6.90;99.90
12872;DHT22;6504;53.766;9.626;2023-04-25T03:47:20;6.90;99.90
12872;DHT22;6504;53.766;9.626;2023-04-25T03:49:48;6.90;99.90
12872;DHT22;6504;53.766;9.626;2023-04-25T03:52:18;6.90;99.90
12872;DHT22;6504;53.766;9.626;2023-04-25T03:54:46;6.80;99.90
12872;DHT22;6504;53.766;9.626;2023-04-25T03:57:16;6.90;99.90
12872;DHT22;6504;53.766;9.626;2023-04-25T03:59:44;6.90;99.90
12872;DHT22;6504;53.766;9.626;2023-04-25T04:02:12;6.90;99.90
12872;DHT22;6504;53.766;9.626;2023-04-25T04:04:40;6.90;99.90
12872;DHT22;6504;53.766;9.626;2023-04-25T04:07:11;6.90;99.90
12872;DHT22;6504;53.766;9.626;2023-04-25T04:09:39;6.90;99.90
12872;DHT22;6504;53.766;9.626;2023-04-25T04:12:07;6.90;99.90
12872;DHT22;6504;53.766;9.626;2023-04-25T04:14:36;6.90;99.90
12872;DHT22;6504;53.766;9.626;2023-04-25T04:17:04;6.90;99.90
12872;DHT22;6504;53.766;9.626;2023-04-25T04:19:32;6.80;99.90
12872;DHT22;6504;53.766;9.626;2023-04-25T04:22:00;6.90;99.90
12872;DHT22;6504;53.766;9.626;2023-04-25T04:24:28;6.90;99.90
12872;DHT22;6504;53.766;9.626;2023-04-25T04:26:56;6.90;99.90
12872;DHT22;6504;53.766;9.626;2023-04-25T04:29:25;6.90;99.90
12872;DHT22;6504;53.766;9.626;2023-04-25T04:31:55;6.80;99.90
12872;DHT22;6504;53.766;9.626;2023-04-25T04:34:23;6.90;99.90
12872;DHT22;6504;53.766;9.626;2023-04-25T04:36:52;6.80;99.90
12872;DHT22;6504;53.766;9.626;2023-04-25T04:39:20;6.80;99.90
12872;DHT22;6504;53.766;9.626;2023-04-25T04:41:48;6.80;99.90
12872;DHT22;6504;53.766;9.626;2023-04-25T04:44:17;6.80;99.90
12872;DHT22;6504;53.766;9.626;2023-04-25T04:46:45;6.80;99.90
12872;DHT22;6504;53.766;9.626;2023-04-25T04:49:15;6.70;99.90
12872;DHT22;6504;53.766;9.626;2023-04-25T04:51:44;6.60;99.90
12872;DHT22;6504;53.766;9.626;2023-04-25T04:54:12;6.60;99.90
12872;DHT22;6504;53.766;9.626;2023-04-25T04:56:40;6.50;99.90
12872;DHT22;6504;53.766;9.626;2023-04-25T04:59:09;6.50;99.90
12872;DHT22;6504;53.766;9.626;2023-04-25T05:01:37;6.60;99.90
12872;DHT22;6504;53.766;9.626;2023-04-25T05:04:06;6.60;99.90
12872;DHT22;6504;53.766;9.626;2023-04-25T05:06:36;6.60;99.90
12872;DHT22;6504;53.766;9.626;2023-04-25T05:09:04;6.60;99.90
12872;DHT22;6504;53.766;9.626;2023-04-25T05:11:32;6.70;99.90
12872;DHT22;6504;53.766;9.626;2023-04-25T05:14:00;6.70;99.90
12872;DHT22;6504;53.766;9.626;2023-04-25T05:16:29;6.70;99.90
12872;DHT22;6504;53.766;9.626;2023-04-25T05:18:57;6.70;99.90
12872;DHT22;6504;53.766;9.626;2023-04-25T05:21:25;6.80;99.90
12872;DHT22;6504;53.766;9.626;2023-04-25T05:23:55;6.80;99.90
12872;DHT22;6504;53.766;9.626;2023-04-25T05:26:23;6.80;99.90
12872;DHT22;6504;53.766;9.626;2023-04-25T05:28:51;6.80;99.90
12872;DHT22;6504;53.766;9.626;2023-04-25T05:31:19;6.80;99.90
12872;DHT22;6504;53.766;9.626;2023-04-25T05:33:48;6.80;99.90
12872;DHT22;6504;53.766;9.626;2023-04-25T05:36:18;6.90;99.90
12872;DHT22;6504;53.766;9.626;2023-04-25T05:38:46;6.90;99.90
12872;DHT22;6504;53.766;9.626;2023-04-25T05:41:16;6.90;99.90
12872;DHT22;6504;53.766;9.626;2023-04-25T05:43:44;7.00;99.90
12872;DHT22;6504;53.766;9.626;2023-04-25T05:46:16;7.00;99.90
12872;DHT22;6504;53.766;9.626;2023-04-25T05:48:45;7.00;99.90
12872;DHT22;6504;53.766;9.626;2023-04-25T05:51:13;7.10;99.90
12872;DHT22;6504;53.766;9.626;2023-04-25T05:53:41;7.10;99.90
12872;DHT22;6504;53.766;9.626;2023-04-25T05:56:09;7.10;99.90
12872;DHT22;6504;53.766;9.626;2023-04-25T05:58:38;7.10;99.90
12872;DHT22;6504;53.766;9.626;2023-04-25T06:01:06;7.20;99.90
12872;DHT22;6504;53.766;9.626;2023-04-25T06:03:35;7.10;99.90
12872;DHT22;6504;53.766;9.626;2023-04-25T06:06:05;7.10;99.90
12872;DHT22;6504;53.766;9.626;2023-04-25T06:08:33;7.00;99.90
12872;DHT22;6504;53.766;9.626;2023-04-25T06:11:01;6.90;99.90
12872;DHT22;6504;53.766;9.626;2023-04-25T06:13:29;6.80;99.90
12872;DHT22;6504;53.766;9.626;2023-04-25T06:15:58;6.80;99.90
12872;DHT22;6504;53.766;9.626;2023-04-25T06:18:27;6.80;99.90
12872;DHT22;6504;53.766;9.626;2023-04-25T06:20:55;6.80;99.90
12872;DHT22;6504;53.766;9.626;2023-04-25T06:23:23;6.80;99.90
12872;DHT22;6504;53.766;9.626;2023-04-25T06:25:51;6.80;99.90
12872;DHT22;6504;53.766;9.626;2023-04-25T06:28:19;6.80;99.90
12872;DHT22;6504;53.766;9.626;2023-04-25T06:30:48;6.80;99.90
12872;DHT22;6504;53.766;9.626;2023-04-25T06:33:18;6.80;99.90
12872;DHT22;6504;53.766;9.626;2023-04-25T06:35:46;6.80;99.90
12872;DHT22;6504;53.766;9.626;2023-04-25T06:38:15;6.80;99.90
12872;DHT22;6504;53.766;9.626;2023-04-25T06:40:43;6.80;99.90
12872;DHT22;6504;53.766;9.626;2023-04-25T06:43:11;6.70;99.90
12872;DHT22;6504;53.766;9.626;2023-04-25T06:45:39;6.70;99.90
12872;DHT22;6504;53.766;9.626;2023-04-25T06:48:09;6.60;99.90
12872;DHT22;6504;53.766;9.626;2023-04-25T06:50:38;6.60;99.90
12872;DHT22;6504;53.766;9.626;2023-04-25T06:53:06;6.60;99.90
12872;DHT22;6504;53.766;9.626;2023-04-25T06:55:35;6.50;99.90
12872;DHT22;6504;53.766;9.626;2023-04-25T06:58:03;6.50;99.90
12872;DHT22;6504;53.766;9.626;2023-04-25T07:00:31;6.60;99.90
12872;DHT22;6504;53.766;9.626;2023-04-25T07:03:00;6.50;99.90
12872;DHT22;6504;53.766;9.626;2023-04-25T07:05:29;6.60;99.90
12872;DHT22;6504;53.766;9.626;2023-04-25T07:07:59;6.60;99.90
12872;DHT22;6504;53.766;9.626;2023-04-25T07:10:27;6.70;99.90
12872;DHT22;6504;53.766;9.626;2023-04-25T07:12:55;6.80;99.90
12872;DHT22;6504;53.766;9.626;2023-04-25T07:15:23;6.80;99.90
12872;DHT22;6504;53.766;9.626;2023-04-25T07:17:51;6.80;99.90
12872;DHT22;6504;53.766;9.626;2023-04-25T07:20:19;6.90;99.90
12872;DHT22;6504;53.766;9.626;2023-04-25T07:22:47;6.90;99.90
12872;DHT22;6504;53.766;9.626;2023-04-25T07:25:18;6.90;99.90
12872;DHT22;6504;53.766;9.626;2023-04-25T07:27:46;7.00;99.90
12872;DHT22;6504;53.766;9.626;2023-04-25T07:30:14;7.00;99.90
12872;DHT22;6504;53.766;9.626;2023-04-25T07:32:42;7.10;99.90
12872;DHT22;6504;53.766;9.626;2023-04-25T07:35:10;7.10;99.90
12872;DHT22;6504;53.766;9.626;2023-04-25T07:37:38;7.10;99.90
12872;DHT22;6504;53.766;9.626;2023-04-25T07:40:07;7.20;99.90
12872;DHT22;6504;53.766;9.626;2023-04-25T07:42:38;7.10;99.90
12872;DHT22;6504;53.766;9.626;2023-04-25T07:45:07;7.00;99.90
12872;DHT22;6504;53.766;9.626;2023-04-25T07:47:36;6.70;99.90
12872;DHT22;6504;53.766;9.626;2023-04-25T07:50:06;6.60;99.90
12872;DHT22;6504;53.766;9.626;2023-04-25T07:52:34;6.60;99.90
12872;DHT22;6504;53.766;9.626;2023-04-25T07:55:03;6.60;99.90
12872;DHT22;6504;53.766;9.626;2023-04-25T07:57:31;6.60;99.90
12872;DHT22;6504;53.766;9.626;2023-04-25T08:00:00;6.60;99.90
12872;DHT22;6504;53.766;9.626;2023-04-25T08:02:28;6.70;99.90
12872;DHT22;6504;53.766;9.626;2023-04-25T08:04:56;6.70;99.90
12872;DHT22;6504;53.766;9.626;2023-04-25T08:07:25;6.70;99.90
12872;DHT22;6504;53.766;9.626;2023-04-25T08:09:54;6.70;99.90
12872;DHT22;6504;53.766;9.626;2023-04-25T08:12:22;6.70;99.90
12872;DHT22;6504;53.766;9.626;2023-04-25T08:14:50;6.80;99.90
12872;DHT22;6504;53.766;9.626;2023-04-25T08:17:19;6.90;99.90
12872;DHT22;6504;53.766;9.626;2023-04-25T08:19:48;7.00;99.90
12872;DHT22;6504;53.766;9.626;2023-04-25T08:22:16;7.10;99.90
12872;DHT22;6504;53.766;9.626;2023-04-25T08:24:44;7.20;99.90
12872;DHT22;6504;53.766;9.626;2023-04-25T08:27:12;7.30;99.90
12872;DHT22;6504;53.766;9.626;2023-04-25T08:29:41;7.40;99.90
12872;DHT22;6504;53.766;9.626;2023-04-25T08:32:09;7.40;99.90
12872;DHT22;6504;53.766;9.626;2023-04-25T08:34:39;7.40;99.90
12872;DHT22;6504;53.766;9.626;2023-04-25T08:37:09;7.50;99.90
12872;DHT22;6504;53.766;9.626;2023-04-25T08:39:37;7.50;99.90
12872;DHT22;6504;53.766;9.626;2023-04-25T08:42:06;7.40;99.90
12872;DHT22;6504;53.766;9.626;2023-04-25T08:44:35;7.40;99.90
12872;DHT22;6504;53.766;9.626;2023-04-25T08:47:04;7.50;99.90
12872;DHT22;6504;53.766;9.626;2023-04-25T08:49:33;7.50;99.90
12872;DHT22;6504;53.766;9.626;2023-04-25T08:52:04;7.50;99.90
12872;DHT22;6504;53.766;9.626;2023-04-25T08:54:33;7.60;99.90
12872;DHT22;6504;53.766;9.626;2023-04-25T08:57:05;7.60;99.90
12872;DHT22;6504;53.766;9.626;2023-04-25T08:59:34;7.60;99.90
12872;DHT22;6504;53.766;9.626;2023-04-25T09:02:05;7.70;99.90
12872;DHT22;6504;53.766;9.626;2023-04-25T09:04:33;7.80;99.90
12872;DHT22;6504;53.766;9.626;2023-04-25T09:07:03;7.80;99.90
12872;DHT22;6504;53.766;9.626;2023-04-25T09:09:31;7.90;99.90
12872;DHT22;6504;53.766;9.626;2023-04-25T09:12:00;7.90;99.90
12872;DHT22;6504;53.766;9.626;2023-04-25T09:14:28;7.90;99.90
12872;DHT22;6504;53.766;9.626;2023-04-25T09:17:01;7.90;99.90
12872;DHT22;6504;53.766;9.626;2023-04-25T09:19:30;7.80;99.90
12872;DHT22;6504;53.766;9.626;2023-04-25T09:22:08;7.80;99.90
12872;DHT22;6504;53.766;9.626;2023-04-25T09:24:38;7.80;99.90
12872;DHT22;6504;53.766;9.626;2023-04-25T09:27:09;7.80;99.90
12872;DHT22;6504;53.766;9.626;2023-04-25T09:29:38;7.80;99.90
12872;DHT22;6504;53.766;9.626;2023-04-25T09:32:21;7.80;99.90
12872;DHT22;6504;53.766;9.626;2023-04-25T09:34:58;7.90;99.90
12872;DHT22;6504;53.766;9.626;2023-04-25T09:37:29;8.00;99.90
12872;DHT22;6504;53.766;9.626;2023-04-25T09:39:59;8.00;99.90
12872;DHT22;6504;53.766;9.626;2023-04-25T09:42:30;8.00;99.90
12872;DHT22;6504;53.766;9.626;2023-04-25T09:44:59;8.00;99.90
12872;DHT22;6504;53.766;9.626;2023-04-25T09:47:28;8.00;99.90
12872;DHT22;6504;53.766;9.626;2023-04-25T09:49:56;8.00;99.90
12872;DHT22;6504;53.766;9.626;2023-04-25T09:52:26;8.00;99.90
12872;DHT22;6504;53.766;9.626;2023-04-25T09:54:54;8.10;99.90
12872;DHT22;6504;53.766;9.626;2023-04-25T09:57:24;8.20;99.90
12872;DHT22;6504;53.766;9.626;2023-04-25T09:59:53;8.30;99.90
12872;DHT22;6504;53.766;9.626;2023-04-25T10:02:24;8.30;99.90
12872;DHT22;6504;53.766;9.626;2023-04-25T10:04:53;8.30;99.90
12872;DHT22;6504;53.766;9.626;2023-04-25T10:07:23;8.30;99.90
12872;DHT22;6504;53.766;9.626;2023-04-25T10:09:58;8.40;99.90
12872;DHT22;6504;53.766;9.626;2023-04-25T10:12:27;8.60;99.90
12872;DHT22;6504;53.766;9.626;2023-04-25T10:14:55;8.70;99.90
12872;DHT22;6504;53.766;9.626;2023-04-25T10:17:26;8.70;99.90
12872;DHT22;6504;53.766;9.626;2023-04-25T10:19:55;8.70;99.90
12872;DHT22;6504;53.766;9.626;2023-04-25T10:22:34;8.70;99.90
12872;DHT22;6504;53.766;9.626;2023-04-25T10:25:05;8.70;99.90
12872;DHT22;6504;53.766;9.626;2023-04-25T10:27:35;8.50;99.90
12872;DHT22;6504;53.766;9.626;2023-04-25T10:30:07;8.50;99.90
12872;DHT22;6504;53.766;9.626;2023-04-25T10:32:37;8.50;99.90
12872;DHT22;6504;53.766;9.626;2023-04-25T10:35:13;8.50;99.90
12872;DHT22;6504;53.766;9.626;2023-04-25T10:37:57;8.50;99.90
12872;DHT22;6504;53.766;9.626;2023-04-25T10:40:27;8.30;99.90
12872;DHT22;6504;53.766;9.626;2023-04-25T10:42:55;8.10;99.90
12872;DHT22;6504;53.766;9.626;2023-04-25T10:45:53;8.00;99.90
12872;DHT22;6504;53.766;9.626;2023-04-25T10:48:27;8.00;99.90
12872;DHT22;6504;53.766;9.626;2023-04-25T10:51:07;7.90;99.90
12872;DHT22;6504;53.766;9.626;2023-04-25T10:53:36;7.90;99.90
12872;DHT22;6504;53.766;9.626;2023-04-25T10:56:11;7.80;99.90
12872;DHT22;6504;53.766;9.626;2023-04-25T10:58:43;7.90;99.90
12872;DHT22;6504;53.766;9.626;2023-04-25T11:01:12;7.90;99.90
12872;DHT22;6504;53.766;9.626;2023-04-25T11:03:42;8.00;99.90
12872;DHT22;6504;53.766;9.626;2023-04-25T11:06:20;8.00;99.90
12872;DHT22;6504;53.766;9.626;2023-04-25T11:08:50;8.10;99.90
12872;DHT22;6504;53.766;9.626;2023-04-25T11:11:20;8.30;99.90
12872;DHT22;6504;53.766;9.626;2023-04-25T11:13:49;8.40;99.90
12872;DHT22;6504;53.766;9.626;2023-04-25T11:16:17;8.60;99.90
12872;DHT22;6504;53.766;9.626;2023-04-25T11:18:53;8.80;99.90
12872;DHT22;6504;53.766;9.626;2023-04-25T11:21:25;8.90;99.90
12872;DHT22;6504;53.766;9.626;2023-04-25T11:23:56;9.00;99.90
12872;DHT22;6504;53.766;9.626;2023-04-25T11:26:26;9.00;99.90
12872;DHT22;6504;53.766;9.626;2023-04-25T11:28:57;9.10;99.90
12872;DHT22;6504;53.766;9.626;2023-04-25T11:31:26;9.20;99.90
12872;DHT22;6504;53.766;9.626;2023-04-25T11:33:56;9.30;99.90
12872;DHT22;6504;53.766;9.626;2023-04-25T11:36:24;9.50;99.90
12872;DHT22;6504;53.766;9.626;2023-04-25T11:38:53;9.70;99.90
12872;DHT22;6504;53.766;9.626;2023-04-25T11:41:21;9.80;99.90
12872;DHT22;6504;53.766;9.626;2023-04-25T11:43:52;9.90;99.90
12872;DHT22;6504;53.766;9.626;2023-04-25T11:46:21;10.00;99.90
12872;DHT22;6504;53.766;9.626;2023-04-25T11:48:50;10.00;99.90
12872;DHT22;6504;53.766;9.626;2023-04-25T11:51:19;10.00;99.90
12872;DHT22;6504;53.766;9.626;2023-04-25T11:53:47;10.00;99.90
12872;DHT22;6504;53.766;9.626;2023-04-25T11:56:15;10.00;99.90
12872;DHT22;6504;53.766;9.626;2023-04-25T11:58:58;10.10;99.90
12872;DHT22;6504;53.766;9.626;2023-04-25T12:01:28;10.10;99.90
12872;DHT22;6504;53.766;9.626;2023-04-25T12:04:10;10.10;99.90
12872;DHT22;6504;53.766;9.626;2023-04-25T12:06:40;10.10;99.90
12872;DHT22;6504;53.766;9.626;2023-04-25T12:09:10;10.00;99.90
12872;DHT22;6504;53.766;9.626;2023-04-25T12:11:43;10.00;99.90
12872;DHT22;6504;53.766;9.626;2023-04-25T12:14:20;10.00;99.90
12872;DHT22;6504;53.766;9.626;2023-04-25T12:16:50;10.10;99.90
12872;DHT22;6504;53.766;9.626;2023-04-25T12:19:20;10.00;99.90
12872;DHT22;6504;53.766;9.626;2023-04-25T12:21:49;10.00;99.90
12872;DHT22;6504;53.766;9.626;2023-04-25T12:24:25;9.90;99.90
12872;DHT22;6504;53.766;9.626;2023-04-25T12:27:00;9.70;99.90
12872;DHT22;6504;53.766;9.626;2023-04-25T12:29:32;9.50;99.90
12872;DHT22;6504;53.766;9.626;2023-04-25T12:32:15;9.30;99.90
12872;DHT22;6504;53.766;9.626;2023-04-25T12:34:43;9.10;99.90
12872;DHT22;6504;53.766;9.626;2023-04-25T12:37:12;9.00;99.90
12872;DHT22;6504;53.766;9.626;2023-04-25T12:39:40;8.90;99.90
12872;DHT22;6504;53.766;9.626;2023-04-25T12:42:08;8.90;99.90
12872;DHT22;6504;53.766;9.626;2023-04-25T12:44:40;9.00;99.90
12872;DHT22;6504;53.766;9.626;2023-04-25T12:47:08;9.10;99.90
12872;DHT22;6504;53.766;9.626;2023-04-25T12:49:37;9.10;99.90
12872;DHT22;6504;53.766;9.626;2023-04-25T12:52:05;9.10;99.90
12872;DHT22;6504;53.766;9.626;2023-04-25T12:54:33;9.10;99.90
12872;DHT22;6504;53.766;9.626;2023-04-25T12:57:02;9.10;99.90
12872;DHT22;6504;53.766;9.626;2023-04-25T12:59:30;9.00;99.90
12872;DHT22;6504;53.766;9.626;2023-04-25T13:02:00;9.00;99.90
12872;DHT22;6504;53.766;9.626;2023-04-25T13:04:28;9.10;99.90
12872;DHT22;6504;53.766;9.626;2023-04-25T13:06:56;9.20;99.90
12872;DHT22;6504;53.766;9.626;2023-04-25T13:09:24;9.40;99.90
12872;DHT22;6504;53.766;9.626;2023-04-25T13:11:52;9.40;99.90
12872;DHT22;6504;53.766;9.626;2023-04-25T13:14:24;9.30;99.90
12872;DHT22;6504;53.766;9.626;2023-04-25T13:16:53;9.20;99.90
12872;DHT22;6504;53.766;9.626;2023-04-25T13:19:23;9.00;99.90
12872;DHT22;6504;53.766;9.626;2023-04-25T13:21:52;8.90;99.90
12872;DHT22;6504;53.766;9.626;2023-04-25T13:24:20;8.70;99.90
12872;DHT22;6504;53.766;9.626;2023-04-25T13:26:48;8.70;99.90
12872;DHT22;6504;53.766;9.626;2023-04-25T13:29:16;8.60;99.90
12872;DHT22;6504;53.766;9.626;2023-04-25T13:31:44;8.50;99.90
12872;DHT22;6504;53.766;9.626;2023-04-25T13:34:12;8.50;99.90
12872;DHT22;6504;53.766;9.626;2023-04-25T13:36:42;8.50;99.90
12872;DHT22;6504;53.766;9.626;2023-04-25T13:39:10;8.50;99.90
12872;DHT22;6504;53.766;9.626;2023-04-25T13:41:38;8.50;99.90
12872;DHT22;6504;53.766;9.626;2023-04-25T13:44:07;8.50;99.90
12872;DHT22;6504;53.766;9.626;2023-04-25T13:46:35;8.50;99.90
12872;DHT22;6504;53.766;9.626;2023-04-25T13:49:06;8.60;99.90
12872;DHT22;6504;53.766;9.626;2023-04-25T13:51:39;8.70;99.90
12872;DHT22;6504;53.766;9.626;2023-04-25T13:54:08;8.80;99.90
12872;DHT22;6504;53.766;9.626;2023-04-25T13:56:36;8.80;99.90
12872;DHT22;6504;53.766;9.626;2023-04-25T13:59:05;8.90;99.90
12872;DHT22;6504;53.766;9.626;2023-04-25T14:01:33;8.80;99.90
12872;DHT22;6504;53.766;9.626;2023-04-25T14:04:02;8.90;99.90
12872;DHT22;6504;53.766;9.626;2023-04-25T14:06:32;9.00;99.90
12872;DHT22;6504;53.766;9.626;2023-04-25T14:09:00;9.20;99.90
12872;DHT22;6504;53.766;9.626;2023-04-25T14:11:29;9.20;99.90
12872;DHT22;6504;53.766;9.626;2023-04-25T14:13:57;9.20;99.90
12872;DHT22;6504;53.766;9.626;2023-04-25T14:16:25;9.30;99.90
12872;DHT22;6504;53.766;9.626;2023-04-25T14:18:54;9.50;99.90
12872;DHT22;6504;53.766;9.626;2023-04-25T14:21:22;9.60;99.90
12872;DHT22;6504;53.766;9.626;2023-04-25T14:23:50;9.70;99.90
12872;DHT22;6504;53.766;9.626;2023-04-25T14:26:19;9.80;99.90
12872;DHT22;6504;53.766;9.626;2023-04-25T14:28:48;9.80;99.90
12872;DHT22;6504;53.766;9.626;2023-04-25T14:31:16;9.70;99.90
12872;DHT22;6504;53.766;9.626;2023-04-25T14:33:44;9.70;99.90
12872;DHT22;6504;53.766;9.626;2023-04-25T14:36:13;9.50;99.90
12872;DHT22;6504;53.766;9.626;2023-04-25T14:38:41;9.30;99.90
12872;DHT22;6504;53.766;9.626;2023-04-25T14:41:09;9.00;99.90
12872;DHT22;6504;53.766;9.626;2023-04-25T14:43:37;8.70;99.90
12872;DHT22;6504;53.766;9.626;2023-04-25T14:46:08;8.50;99.90
12872;DHT22;6504;53.766;9.626;2023-04-25T14:48:36;8.40;99.90
12872;DHT22;6504;53.766;9.626;2023-04-25T14:51:05;8.40;99.90
12872;DHT22;6504;53.766;9.626;2023-04-25T14:53:33;8.30;99.90
12872;DHT22;6504;53.766;9.626;2023-04-25T14:56:01;8.40;99.90
12872;DHT22;6504;53.766;9.626;2023-04-25T14:58:29;8.50;99.90
12872;DHT22;6504;53.766;9.626;2023-04-25T15:00:57;8.60;99.90
12872;DHT22;6504;53.766;9.626;2023-04-25T15:03:27;8.60;99.90
12872;DHT22;6504;53.766;9.626;2023-04-25T15:05:55;8.60;99.90
12872;DHT22;6504;53.766;9.626;2023-04-25T15:08:23;8.70;99.90
12872;DHT22;6504;53.766;9.626;2023-04-25T15:10:52;8.70;99.90
12872;DHT22;6504;53.766;9.626;2023-04-25T15:13:20;8.70;99.90
12872;DHT22;6504;53.766;9.626;2023-04-25T15:15:48;8.70;99.90
12872;DHT22;6504;53.766;9.626;2023-04-25T15:18:19;8.80;99.90
12872;DHT22;6504;53.766;9.626;2023-04-25T15:20:50;8.70;99.90
12872;DHT22;6504;53.766;9.626;2023-04-25T15:23:19;8.70;99.90
12872;DHT22;6504;53.766;9.626;2023-04-25T15:25:49;8.70;99.90
12872;DHT22;6504;53.766;9.626;2023-04-25T15:28:18;8.70;99.90
12872;DHT22;6504;53.766;9.626;2023-04-25T15:30:48;8.70;99.90
12872;DHT22;6504;53.766;9.626;2023-04-25T15:33:16;8.70;99.90
12872;DHT22;6504;53.766;9.626;2023-04-25T15:35:44;8.60;99.90
12872;DHT22;6504;53.766;9.626;2023-04-25T15:38:14;8.50;99.90
12872;DHT22;6504;53.766;9.626;2023-04-25T15:40:42;8.50;99.90
12872;DHT22;6504;53.766;9.626;2023-04-25T15:43:10;8.50;99.90
12872;DHT22;6504;53.766;9.626;2023-04-25T15:45:42;8.50;99.90
12872;DHT22;6504;53.766;9.626;2023-04-25T15:48:11;8.60;99.90
12872;DHT22;6504;53.766;9.626;2023-04-25T15:50:40;8.70;99.90
12872;DHT22;6504;53.766;9.626;2023-04-25T15:53:08;8.70;99.90
12872;DHT22;6504;53.766;9.626;2023-04-25T15:55:38;8.70;99.90
12872;DHT22;6504;53.766;9.626;2023-04-25T15:58:06;8.60;99.90
12872;DHT22;6504;53.766;9.626;2023-04-25T16:00:37;8.70;99.90
12872;DHT22;6504;53.766;9.626;2023-04-25T16:03:06;8.70;99.90
12872;DHT22;6504;53.766;9.626;2023-04-25T16:05:35;8.80;99.90
12872;DHT22;6504;53.766;9.626;2023-04-25T16:08:04;8.80;99.90
12872;DHT22;6504;53.766;9.626;2023-04-25T16:10:32;8.80;99.90
12872;DHT22;6504;53.766;9.626;2023-04-25T16:13:01;8.70;99.90
12872;DHT22;6504;53.766;9.626;2023-04-25T16:15:29;8.70;99.90